Time;durP1;ratioP1;P1;durP2;ratioP2;P2;SDS_P1;SDS_P2;PMS_P1;PMS_P2;Temp;Humidity;BMP_temperature;BMP_pressure;BME280_temperature;BME280_humidity;BME280_pressure;Samples;Min_cycle;Max_cycle;Signal;HPM_P1;HPM_P2
2021/01/16 00:02:00;;;;;;;12.10;9.15;;;1.50;99.90;;;;;;5120492;28;20422;-74
2021/01/16 00:04:26;;;;;;;11.90;8.40;;;1.40;99.90;;;;;;5114433;28;20164;-74
2021/01/16 00:06:52;;;;;;;12.40;9.70;;;1.30;99.90;;;;;;5112214;28;20226;-73
2021/01/16 00:09:17;;;;;;;13.83;9.50;;;1.30;99.90;;;;;;5101331;28;20204;-73
2021/01/16 00:11:43;;;;;;;13.23;8.70;;;1.40;99.90;;;;;;5097524;28;20421;-73
2021/01/16 00:14:08;;;;;;;12.77;9.23;;;1.50;99.90;;;;;;5097408;28;20223;-73
2021/01/16 00:16:34;;;;;;;12.63;9.20;;;1.60;99.90;;;;;;5098340;27;20212;-73
2021/01/16 00:18:59;;;;;;;17.33;9.93;;;1.60;99.90;;;;;;5097639;28;20169;-73
2021/01/16 00:21:25;;;;;;;12.17;10.23;;;1.70;99.90;;;;;;5097179;28;20169;-73
2021/01/16 00:23:50;;;;;;;15.30;10.17;;;1.70;99.90;;;;;;5097017;28;20173;-71
2021/01/16 00:26:16;;;;;;;14.73;9.73;;;1.60;99.90;;;;;;5097228;28;20545;-71
2021/01/16 00:28:41;;;;;;;13.03;9.27;;;1.70;99.90;;;;;;5098531;28;20169;-73
2021/01/16 00:31:07;;;;;;;16.63;9.80;;;1.70;99.90;;;;;;5096973;28;20172;-74
2021/01/16 00:33:35;;;;;;;12.73;9.93;;;1.80;99.90;;;;;;5097037;28;20183;-72
2021/01/16 00:36:02;;;;;;;12.80;9.90;;;1.90;99.90;;;;;;5096729;28;20196;-72
2021/01/16 00:38:29;;;;;;;13.87;10.07;;;1.70;99.90;;;;;;5106279;28;20417;-73
2021/01/16 00:40:56;;;;;;;16.70;9.37;;;1.50;99.90;;;;;;5117485;27;20817;-73
2021/01/16 00:43:22;;;;;;;12.40;9.50;;;1.50;99.90;;;;;;5117357;28;20401;-72
2021/01/16 00:45:49;;;;;;;16.50;10.70;;;1.30;99.90;;;;;;5116977;28;20545;-73
2021/01/16 00:48:17;;;;;;;13.02;9.50;;;1.30;99.90;;;;;;5115130;28;20409;-72
2021/01/16 00:50:47;;;;;;;16.27;10.63;;;1.30;99.90;;;;;;5117185;28;20167;-72
2021/01/16 00:53:13;;;;;;;15.45;9.88;;;1.20;99.90;;;;;;5117045;28;21031;-72
2021/01/16 00:55:38;;;;;;;12.70;9.47;;;1.10;99.90;;;;;;5116643;28;20293;-72
2021/01/16 00:58:12;;;;;;;13.73;9.80;;;1.10;99.90;;;;;;5117696;28;20176;-74
2021/01/16 01:00:39;;;;;;;20.77;10.25;;;1.10;99.90;;;;;;5099304;28;20446;-72
2021/01/16 01:03:06;;;;;;;16.85;10.85;;;1.10;99.90;;;;;;5096492;28;20523;-72
2021/01/16 01:05:32;;;;;;;14.20;10.45;;;1.10;99.90;;;;;;5095925;28;20168;-73
2021/01/16 01:07:58;;;;;;;12.67;8.80;;;1.10;99.90;;;;;;5095545;28;20188;-73
2021/01/16 01:10:29;;;;;;;16.30;10.23;;;1.10;99.90;;;;;;5097905;28;20786;-72
2021/01/16 01:12:54;;;;;;;13.20;9.38;;;1.10;99.90;;;;;;5096987;28;20238;-72
2021/01/16 01:15:20;;;;;;;18.17;9.60;;;1.10;99.90;;;;;;5096843;28;20200;-73
2021/01/16 01:17:53;;;;;;;14.97;10.67;;;1.10;99.90;;;;;;5095916;28;20623;-72
2021/01/16 01:20:20;;;;;;;15.60;10.15;;;1.10;99.90;;;;;;5097754;28;20172;-72
2021/01/16 01:22:47;;;;;;;15.93;10.70;;;1.10;99.90;;;;;;5096692;28;20203;-73
2021/01/16 01:25:12;;;;;;;14.73;10.40;;;1.10;99.90;;;;;;5097255;28;20161;-73
2021/01/16 01:27:38;;;;;;;14.87;10.97;;;1.20;99.90;;;;;;5097595;28;20426;-73
2021/01/16 01:30:05;;;;;;;15.87;10.97;;;1.20;99.90;;;;;;5096844;28;20173;-73
2021/01/16 01:32:30;;;;;;;14.48;9.68;;;1.20;99.90;;;;;;5097090;28;20177;-73
2021/01/16 01:34:56;;;;;;;16.80;10.70;;;1.10;99.90;;;;;;5095471;28;20192;-73
2021/01/16 01:37:22;;;;;;;17.20;11.70;;;1.20;99.90;;;;;;5095501;27;20281;-72
2021/01/16 01:39:47;;;;;;;15.00;9.83;;;1.10;99.90;;;;;;5096094;28;20173;-74
2021/01/16 01:42:17;;;;;;;16.03;9.87;;;1.10;99.90;;;;;;5096927;28;20206;-73
2021/01/16 01:44:43;;;;;;;16.13;10.37;;;1.20;99.90;;;;;;5095487;28;20222;-73
2021/01/16 01:47:14;;;;;;;13.73;10.57;;;1.30;99.90;;;;;;5095619;28;20415;-73
2021/01/16 01:49:41;;;;;;;14.27;10.00;;;1.30;99.90;;;;;;5095853;28;20254;-73
2021/01/16 01:52:09;;;;;;;14.23;9.20;;;1.30;99.90;;;;;;5095512;28;20933;-74
2021/01/16 01:54:36;;;;;;;14.43;9.60;;;1.40;99.90;;;;;;5094056;28;20234;-73
2021/01/16 01:57:06;;;;;;;12.68;9.07;;;1.40;99.90;;;;;;5095235;28;20523;-73
2021/01/16 01:59:38;;;;;;;15.33;9.77;;;1.40;99.90;;;;;;5095533;28;20195;-73
2021/01/16 02:02:04;;;;;;;12.77;9.03;;;1.40;99.90;;;;;;5095302;27;20411;-73
2021/01/16 02:04:31;;;;;;;18.52;10.45;;;1.40;99.90;;;;;;5094837;28;20449;-73
2021/01/16 02:07:00;;;;;;;16.02;10.05;;;1.40;99.90;;;;;;5095050;28;20225;-73
2021/01/16 02:09:26;;;;;;;15.20;10.30;;;1.40;99.90;;;;;;5096582;28;20173;-73
2021/01/16 02:11:53;;;;;;;15.60;10.03;;;1.50;99.90;;;;;;5095151;28;20735;-73
2021/01/16 02:14:33;;;;;;;12.77;9.93;;;1.60;99.90;;;;;;5095127;28;20168;-73
2021/01/16 02:17:02;;;;;;;14.70;10.03;;;1.70;99.90;;;;;;5094674;28;20450;-73
2021/01/16 02:20:02;;;;;;;16.40;10.90;;;1.80;99.90;;;;;;5096190;28;20418;-73
2021/01/16 02:22:31;;;;;;;12.80;9.30;;;1.90;99.90;;;;;;5078736;28;20807;-73
2021/01/16 02:25:12;;;;;;;13.43;9.60;;;2.10;99.90;;;;;;5094520;27;20510;-73
2021/01/16 02:28:04;;;;;;;13.77;9.20;;;2.10;99.90;;;;;;5094696;28;20506;-74
2021/01/16 02:30:33;;;;;;;13.97;9.93;;;2.20;99.90;;;;;;5095733;28;20792;-73
2021/01/16 02:33:02;;;;;;;14.40;9.93;;;2.20;99.90;;;;;;5094931;28;20435;-73
2021/01/16 02:35:27;;;;;;;16.10;11.00;;;2.20;99.80;;;;;;5095451;28;20450;-73
2021/01/16 02:38:08;;;;;;;14.37;9.47;;;2.10;99.80;;;;;;5094570;28;20418;-73
2021/01/16 02:40:40;;;;;;;13.90;9.03;;;2.10;99.90;;;;;;5097089;27;20784;-74
2021/01/16 02:43:31;;;;;;;11.20;8.33;;;2.00;99.80;;;;;;5115697;28;20413;-73
2021/01/16 02:46:22;;;;;;;13.60;9.27;;;2.00;99.90;;;;;;5123609;28;20438;-73
2021/01/16 02:49:12;;;;;;;15.87;10.00;;;1.90;99.90;;;;;;5115396;28;20740;-73
2021/01/16 02:52:00;;;;;;;12.57;8.83;;;1.80;99.90;;;;;;5113129;28;20422;-73
2021/01/16 02:54:26;;;;;;;11.50;8.53;;;1.80;99.90;;;;;;5106484;28;20910;-74
2021/01/16 02:56:52;;;;;;;16.70;10.70;;;1.80;99.90;;;;;;5114604;28;20549;-73
2021/01/16 02:59:17;;;;;;;17.77;10.37;;;1.80;99.90;;;;;;5114806;28;20300;-73
2021/01/16 03:01:43;;;;;;;14.87;10.07;;;1.90;99.90;;;;;;5112701;28;20432;-73
2021/01/16 03:04:08;;;;;;;14.60;10.10;;;2.00;99.90;;;;;;5115100;28;20172;-73
2021/01/16 03:06:42;;;;;;;11.43;8.70;;;2.00;99.90;;;;;;5114669;28;20286;-73
2021/01/16 03:09:08;;;;;;;15.57;11.23;;;2.10;99.90;;;;;;5118244;27;20192;-73
2021/01/16 03:11:34;;;;;;;14.07;10.00;;;2.10;99.90;;;;;;5119650;28;20410;-73
2021/01/16 03:14:01;;;;;;;16.97;11.00;;;2.20;99.90;;;;;;5098466;28;20422;-73
2021/01/16 03:16:28;;;;;;;15.70;11.57;;;2.10;99.90;;;;;;5092712;28;20601;-74
2021/01/16 03:18:56;;;;;;;17.53;10.90;;;2.20;99.90;;;;;;5094118;28;20399;-73
2021/01/16 03:21:22;;;;;;;13.80;9.77;;;2.20;99.90;;;;;;5094226;28;20411;-73
2021/01/16 03:23:47;;;;;;;14.30;10.27;;;2.30;99.90;;;;;;5095884;28;20755;-73
2021/01/16 03:26:13;;;;;;;16.97;9.90;;;2.30;99.90;;;;;;5095605;28;20437;-73
2021/01/16 03:28:38;;;;;;;14.60;10.00;;;2.30;99.90;;;;;;5096744;28;20237;-74
2021/01/16 03:31:04;;;;;;;13.50;9.43;;;2.30;99.90;;;;;;5097858;27;20197;-74
2021/01/16 03:33:29;;;;;;;17.07;9.80;;;2.30;99.90;;;;;;5101798;28;20213;-74
2021/01/16 03:35:55;;;;;;;14.60;9.63;;;2.30;99.90;;;;;;5099386;28;20208;-73
2021/01/16 03:38:20;;;;;;;13.13;9.90;;;2.30;99.90;;;;;;5094566;28;20230;-73
2021/01/16 03:40:47;;;;;;;14.40;9.47;;;2.30;99.90;;;;;;5093678;28;20294;-73
2021/01/16 03:43:13;;;;;;;14.20;9.43;;;2.40;99.80;;;;;;5093225;28;20172;-73
2021/01/16 03:45:39;;;;;;;15.47;9.47;;;2.40;99.70;;;;;;5094315;28;20516;-73
2021/01/16 03:48:06;;;;;;;13.97;10.30;;;2.40;99.60;;;;;;5093485;28;20446;-73
2021/01/16 03:50:32;;;;;;;14.20;9.90;;;2.40;99.50;;;;;;5093398;28;20886;-73
2021/01/16 03:52:57;;;;;;;12.50;9.53;;;2.50;99.50;;;;;;5093717;28;20460;-73
2021/01/16 03:55:23;;;;;;;15.07;9.23;;;2.50;99.40;;;;;;5094476;28;20697;-73
2021/01/16 03:57:48;;;;;;;15.37;9.13;;;2.50;99.70;;;;;;5093594;28;20180;-73
2021/01/16 04:00:14;;;;;;;12.93;9.40;;;2.50;99.40;;;;;;5093779;28;20559;-73
2021/01/16 04:02:39;;;;;;;20.80;10.83;;;2.50;99.40;;;;;;5091989;28;20211;-73
2021/01/16 04:05:06;;;;;;;13.63;10.60;;;2.50;99.50;;;;;;5093256;27;20242;-73
2021/01/16 04:07:31;;;;;;;14.00;10.00;;;2.50;99.50;;;;;;5094425;28;20231;-73
2021/01/16 04:09:57;;;;;;;12.90;9.83;;;2.50;99.60;;;;;;5093324;28;20885;-73
2021/01/16 04:12:24;;;;;;;16.40;10.37;;;2.50;99.60;;;;;;5093750;28;20215;-73
2021/01/16 04:14:49;;;;;;;15.77;10.83;;;2.50;99.50;;;;;;5093562;28;20176;-73
2021/01/16 04:17:15;;;;;;;14.10;9.80;;;2.50;99.40;;;;;;5094393;28;20900;-73
2021/01/16 04:19:40;;;;;;;16.13;9.70;;;2.40;99.60;;;;;;5093408;28;20170;-73
2021/01/16 04:22:06;;;;;;;13.87;9.80;;;2.50;99.50;;;;;;5093300;28;20540;-73
2021/01/16 04:24:32;;;;;;;14.83;9.40;;;2.50;99.50;;;;;;5092970;28;20177;-74
2021/01/16 04:26:57;;;;;;;12.30;8.97;;;2.50;99.40;;;;;;5094171;28;20196;-73
2021/01/16 04:29:23;;;;;;;13.80;10.10;;;2.50;99.40;;;;;;5091651;28;20187;-73
2021/01/16 04:31:49;;;;;;;15.17;10.13;;;2.50;99.40;;;;;;5093058;28;20177;-74
2021/01/16 04:34:15;;;;;;;13.37;8.83;;;2.60;99.30;;;;;;5092403;27;20205;-73
2021/01/16 04:36:40;;;;;;;12.70;9.17;;;2.50;99.20;;;;;;5093435;28;20478;-73
2021/01/16 04:39:06;;;;;;;14.37;10.00;;;2.60;99.30;;;;;;5094503;28;20185;-73
2021/01/16 04:41:34;;;;;;;13.40;9.77;;;2.60;99.30;;;;;;5093013;28;20188;-73
2021/01/16 04:44:00;;;;;;;12.90;9.57;;;2.50;99.10;;;;;;5092983;28;20460;-74
2021/01/16 04:46:26;;;;;;;15.27;9.53;;;2.50;99.10;;;;;;5093216;28;20431;-73
2021/01/16 04:49:13;;;;;;;13.43;8.83;;;2.50;99.00;;;;;;5094286;28;20471;-73
2021/01/16 04:51:43;;;;;;;12.60;8.83;;;2.60;98.90;;;;;;5101510;28;20430;-73
2021/01/16 04:54:13;;;;;;;14.03;9.20;;;2.50;98.60;;;;;;5113274;28;20853;-73
2021/01/16 04:56:40;;;;;;;15.93;9.30;;;2.50;98.50;;;;;;5116579;27;20481;-72
2021/01/16 04:59:06;;;;;;;11.00;8.20;;;2.60;98.60;;;;;;5115436;28;20449;-73
2021/01/16 05:01:32;;;;;;;11.33;8.50;;;2.60;98.50;;;;;;5116910;28;20413;-73
2021/01/16 05:03:58;;;;;;;13.97;7.60;;;2.60;98.50;;;;;;5116337;28;20410;-73
2021/01/16 05:06:28;;;;;;;12.80;8.63;;;2.60;98.30;;;;;;5116723;28;20546;-73
2021/01/16 05:08:56;;;;;;;14.07;9.10;;;2.60;98.10;;;;;;5116818;28;20410;-73
2021/01/16 05:11:24;;;;;;;12.53;8.53;;;2.60;98.10;;;;;;5114888;28;20462;-74
2021/01/16 05:14:06;;;;;;;11.17;8.63;;;2.60;98.00;;;;;;5116454;28;20407;-73
2021/01/16 05:16:57;;;;;;;12.47;8.70;;;2.70;97.90;;;;;;5116242;27;20477;-74
2021/01/16 05:19:30;;;;;;;13.47;8.37;;;2.60;97.70;;;;;;5114635;28;20422;-73
2021/01/16 05:21:56;;;;;;;10.93;8.07;;;2.60;97.60;;;;;;5114878;28;20430;-73
2021/01/16 05:24:22;;;;;;;11.90;8.20;;;2.50;97.70;;;;;;5116155;28;20507;-73
2021/01/16 05:27:06;;;;;;;10.70;7.70;;;2.60;97.70;;;;;;5116377;28;20188;-73
2021/01/16 05:29:34;;;;;;;9.77;7.40;;;2.50;97.40;;;;;;5116309;27;20454;-73
2021/01/16 05:32:01;;;;;;;9.60;7.03;;;2.50;97.40;;;;;;5114570;28;20758;-73
2021/01/16 05:34:29;;;;;;;12.40;8.20;;;2.50;97.30;;;;;;5115638;28;20438;-73
2021/01/16 05:36:57;;;;;;;12.77;9.17;;;2.50;97.20;;;;;;5115792;28;20933;-73
2021/01/16 05:39:25;;;;;;;16.00;8.10;;;2.50;97.20;;;;;;5115711;27;20774;-73
2021/01/16 05:41:59;;;;;;;12.20;8.23;;;2.40;97.30;;;;;;5114255;28;20422;-72
2021/01/16 05:44:26;;;;;;;15.10;8.10;;;2.40;97.40;;;;;;5115626;28;20451;-73
2021/01/16 05:46:52;;;;;;;14.73;8.17;;;2.40;97.50;;;;;;5116191;28;20820;-73
2021/01/16 05:49:21;;;;;;;12.63;9.50;;;2.40;97.70;;;;;;5096809;28;20889;-73
2021/01/16 05:51:47;;;;;;;15.40;8.40;;;2.30;97.60;;;;;;5095536;27;20519;-73
2021/01/16 05:54:14;;;;;;;12.87;8.67;;;2.30;97.60;;;;;;5095152;28;20499;-72
2021/01/16 05:56:42;;;;;;;15.20;9.30;;;2.20;97.70;;;;;;5095449;28;20451;-73
2021/01/16 05:59:12;;;;;;;14.83;8.93;;;2.20;97.90;;;;;;5109210;28;20421;-72
2021/01/16 06:01:38;;;;;;;9.87;8.00;;;2.20;97.90;;;;;;5123834;28;20462;-72
2021/01/16 06:04:05;;;;;;;11.53;8.70;;;2.30;98.10;;;;;;5115417;28;20410;-73
2021/01/16 06:06:36;;;;;;;12.67;8.53;;;2.30;97.90;;;;;;5115203;28;20436;-73
2021/01/16 06:09:04;;;;;;;13.50;9.30;;;2.30;98.10;;;;;;5108727;27;20533;-72
2021/01/16 06:11:37;;;;;;;11.80;7.80;;;2.40;98.10;;;;;;5106756;28;20425;-72
2021/01/16 06:14:07;;;;;;;11.47;8.20;;;2.40;98.00;;;;;;5115250;28;20406;-73
2021/01/16 06:16:50;;;;;;;11.93;8.13;;;2.30;97.90;;;;;;5115263;28;20461;-72
2021/01/16 06:19:19;;;;;;;12.13;7.60;;;2.30;98.00;;;;;;5113747;28;20412;-72
2021/01/16 06:21:45;;;;;;;9.37;7.20;;;2.40;98.10;;;;;;5107303;28;20411;-72
2021/01/16 06:24:15;;;;;;;12.77;8.30;;;2.30;97.80;;;;;;5095442;27;20576;-72
2021/01/16 06:26:42;;;;;;;11.23;8.10;;;2.30;97.90;;;;;;5104065;28;20431;-71
2021/01/16 06:29:24;;;;;;;11.50;8.43;;;2.30;98.00;;;;;;5096084;28;20453;-72
2021/01/16 06:31:50;;;;;;;12.87;9.40;;;2.40;98.00;;;;;;5095667;28;20420;-73
2021/01/16 06:34:29;;;;;;;10.93;7.93;;;2.50;98.00;;;;;;5095410;28;20422;-73
2021/01/16 06:37:04;;;;;;;11.20;7.87;;;2.50;98.00;;;;;;5095511;28;20462;-73
2021/01/16 06:39:35;;;;;;;12.90;8.93;;;2.50;97.90;;;;;;5096069;27;20446;-73
2021/01/16 06:42:21;;;;;;;11.60;7.73;;;2.50;97.90;;;;;;5094730;28;20410;-73
2021/01/16 06:44:47;;;;;;;10.47;8.00;;;2.40;97.70;;;;;;5096079;28;20430;-72
2021/01/16 06:47:13;;;;;;;14.30;8.60;;;2.50;97.70;;;;;;5096838;28;20435;-72
2021/01/16 06:49:38;;;;;;;11.10;8.33;;;2.40;97.70;;;;;;5096652;28;20419;-72
2021/01/16 06:52:08;;;;;;;13.73;9.20;;;2.30;97.80;;;;;;5094773;28;20207;-72
2021/01/16 06:54:35;;;;;;;12.53;8.10;;;2.30;98.00;;;;;;5094417;27;20554;-73
2021/01/16 06:57:11;;;;;;;12.03;8.33;;;2.20;98.20;;;;;;5094405;28;20459;-72
2021/01/16 06:59:41;;;;;;;16.10;9.20;;;2.20;98.20;;;;;;5095243;28;20446;-73
2021/01/16 07:02:23;;;;;;;13.90;8.77;;;2.20;98.20;;;;;;5095673;28;20564;-72
2021/01/16 07:04:53;;;;;;;13.47;9.90;;;2.10;98.20;;;;;;5094803;28;20411;-73
2021/01/16 07:07:29;;;;;;;10.80;7.93;;;2.10;98.40;;;;;;5094644;28;20477;-74
2021/01/16 07:10:04;;;;;;;13.93;9.20;;;2.10;98.50;;;;;;5094719;28;20407;-73
2021/01/16 07:12:30;;;;;;;12.37;8.80;;;2.20;98.60;;;;;;5096141;28;20897;-72
2021/01/16 07:14:55;;;;;;;14.20;10.20;;;2.20;98.70;;;;;;5093938;28;20407;-73
2021/01/16 07:17:23;;;;;;;13.30;9.17;;;2.30;98.90;;;;;;5093022;28;20257;-72
2021/01/16 07:19:49;;;;;;;15.93;10.70;;;2.20;98.90;;;;;;5094055;28;20171;-72
2021/01/16 07:22:15;;;;;;;15.77;10.43;;;2.10;99.20;;;;;;5102737;27;20521;-73
2021/01/16 07:24:43;;;;;;;16.57;10.80;;;2.00;99.60;;;;;;5114136;28;20626;-72
2021/01/16 07:27:12;;;;;;;15.30;10.60;;;2.00;99.80;;;;;;5114912;28;20787;-72
2021/01/16 07:29:39;;;;;;;17.93;10.50;;;2.00;99.80;;;;;;5115329;28;20410;-73
2021/01/16 07:32:14;;;;;;;16.20;10.37;;;2.10;99.90;;;;;;5115319;28;20451;-73
2021/01/16 07:34:44;;;;;;;15.80;10.70;;;2.10;99.90;;;;;;5116593;28;20457;-73
2021/01/16 07:37:11;;;;;;;15.77;9.87;;;2.10;99.90;;;;;;5114149;28;20477;-74
2021/01/16 07:39:43;;;;;;;17.73;11.30;;;2.20;99.90;;;;;;5114040;27;20428;-73
2021/01/16 07:42:12;;;;;;;14.97;11.30;;;2.30;99.90;;;;;;5114212;28;20455;-72
2021/01/16 07:44:46;;;;;;;17.60;10.90;;;2.20;99.90;;;;;;5094329;28;20411;-72
2021/01/16 07:47:20;;;;;;;14.07;10.67;;;2.20;99.90;;;;;;5093983;28;20422;-73
2021/01/16 07:49:53;;;;;;;16.50;11.00;;;2.30;99.90;;;;;;5093891;28;20411;-73
2021/01/16 07:52:23;;;;;;;15.53;10.40;;;2.30;99.90;;;;;;5093956;28;20437;-74
2021/01/16 07:55:06;;;;;;;19.33;11.80;;;2.40;99.90;;;;;;5094414;27;20435;-73
2021/01/16 07:57:33;;;;;;;17.83;10.60;;;2.30;99.80;;;;;;5093732;28;20427;-72
2021/01/16 08:00:04;;;;;;;16.00;10.80;;;2.30;99.80;;;;;;5093649;28;20414;-73
2021/01/16 08:02:32;;;;;;;16.93;10.50;;;2.40;99.80;;;;;;5092138;28;20395;-74
2021/01/16 08:05:15;;;;;;;14.63;9.87;;;2.30;99.60;;;;;;5094585;28;20414;-74
2021/01/16 08:08:02;;;;;;;16.90;11.03;;;2.30;99.60;;;;;;5092501;28;20459;-73
2021/01/16 08:10:28;;;;;;;13.80;9.53;;;2.30;99.60;;;;;;5093330;28;20402;-75
2021/01/16 08:12:57;;;;;;;14.87;10.90;;;2.30;99.60;;;;;;5093349;27;20513;-73
2021/01/16 08:15:29;;;;;;;17.10;10.00;;;2.10;99.70;;;;;;5094579;28;20192;-74
2021/01/16 08:18:02;;;;;;;13.80;9.70;;;2.20;99.90;;;;;;5093602;28;20399;-73
2021/01/16 08:20:35;;;;;;;16.40;10.20;;;2.20;99.90;;;;;;5091806;28;20459;-74
2021/01/16 08:23:03;;;;;;;16.37;10.57;;;2.30;99.90;;;;;;5093586;28;20411;-74
2021/01/16 08:25:32;;;;;;;14.17;10.10;;;2.30;99.90;;;;;;5094614;28;20948;-74
2021/01/16 08:28:00;;;;;;;13.17;9.80;;;2.40;99.90;;;;;;5093255;28;20403;-74
2021/01/16 08:30:27;;;;;;;14.10;10.70;;;2.40;99.90;;;;;;5097365;28;20755;-74
2021/01/16 08:33:07;;;;;;;17.03;11.90;;;2.50;99.80;;;;;;5097067;28;20403;-74
2021/01/16 08:35:48;;;;;;;17.30;11.37;;;2.60;99.80;;;;;;5099538;28;20449;-74
2021/01/16 08:38:16;;;;;;;14.90;11.10;;;2.60;99.70;;;;;;5117997;28;20420;-74
2021/01/16 08:41:05;;;;;;;16.23;10.73;;;2.60;99.70;;;;;;5117668;27;20479;-74
2021/01/16 08:43:43;;;;;;;15.17;11.30;;;2.60;99.80;;;;;;5117838;28;20410;-74
2021/01/16 08:46:32;;;;;;;17.90;10.73;;;2.70;99.90;;;;;;5115242;28;20449;-74
2021/01/16 08:49:15;;;;;;;15.90;11.70;;;2.70;99.90;;;;;;5117216;27;20432;-73
2021/01/16 08:52:01;;;;;;;16.63;12.23;;;2.80;99.90;;;;;;5117819;28;20402;-74
2021/01/16 08:54:27;;;;;;;16.80;12.03;;;2.70;99.80;;;;;;5117080;28;20435;-74
2021/01/16 08:57:11;;;;;;;16.57;12.13;;;2.70;99.70;;;;;;5115551;28;20461;-73
2021/01/16 08:59:38;;;;;;;15.00;10.90;;;2.80;99.70;;;;;;5107205;28;20268;-74
2021/01/16 09:02:03;;;;;;;16.70;11.43;;;2.70;99.50;;;;;;5098709;28;20450;-73
2021/01/16 09:04:39;;;;;;;18.37;11.27;;;2.50;99.80;;;;;;5096386;28;20439;-72
2021/01/16 09:07:20;;;;;;;17.77;11.77;;;2.50;99.90;;;;;;5099403;27;20212;-73
2021/01/16 09:09:55;;;;;;;18.70;11.00;;;2.50;99.90;;;;;;5123595;27;20432;-74
2021/01/16 09:12:36;;;;;;;16.40;10.70;;;2.50;99.90;;;;;;5101494;27;20417;-73
2021/01/16 09:15:30;;;;;;;17.50;11.00;;;2.60;99.90;;;;;;5137709;27;20743;-73
2021/01/16 09:18:03;;;;;;;15.93;10.80;;;2.70;99.90;;;;;;5133804;27;20409;-73
2021/01/16 09:20:30;;;;;;;19.63;12.27;;;2.70;99.90;;;;;;5150010;27;20393;-74
2021/01/16 09:22:56;;;;;;;16.10;10.70;;;2.70;99.90;;;;;;5141243;27;20412;-74
2021/01/16 09:25:26;;;;;;;16.17;10.40;;;2.80;99.90;;;;;;5137556;27;20761;-74
2021/01/16 09:27:53;;;;;;;19.27;11.20;;;2.90;99.90;;;;;;5124627;27;20211;-73
2021/01/16 09:30:30;;;;;;;19.07;12.57;;;2.90;99.90;;;;;;5115410;28;20914;-75
2021/01/16 09:32:56;;;;;;;15.83;10.40;;;3.00;99.80;;;;;;5116811;27;20398;-73
2021/01/16 09:35:39;;;;;;;16.40;10.63;;;2.90;99.50;;;;;;5116353;28;20463;-74
2021/01/16 09:38:16;;;;;;;14.40;10.53;;;2.90;99.40;;;;;;5106341;27;20434;-75
2021/01/16 09:40:42;;;;;;;15.67;10.70;;;2.90;99.40;;;;;;5123945;27;20774;-75
2021/01/16 09:43:18;;;;;;;14.53;11.80;;;2.90;99.40;;;;;;5134511;27;20412;-74
2021/01/16 09:45:57;;;;;;;12.90;9.90;;;2.90;99.40;;;;;;5123611;28;20224;-73
2021/01/16 09:48:32;;;;;;;17.37;11.10;;;2.90;99.20;;;;;;5103529;27;20971;-73
2021/01/16 09:50:59;;;;;;;13.27;10.30;;;2.90;99.30;;;;;;5105363;27;20441;-73
2021/01/16 09:53:26;;;;;;;15.90;11.80;;;2.80;99.40;;;;;;5115779;28;20851;-74
2021/01/16 09:55:55;;;;;;;16.97;10.87;;;2.80;99.40;;;;;;5115400;28;20466;-73
2021/01/16 09:58:42;;;;;;;17.47;11.00;;;2.90;99.50;;;;;;5116268;28;20456;-74
2021/01/16 10:01:24;;;;;;;16.17;10.50;;;2.90;99.40;;;;;;5115740;27;20797;-74
2021/01/16 10:03:51;;;;;;;16.03;11.30;;;2.90;99.70;;;;;;5115901;28;20442;-73
2021/01/16 10:06:18;;;;;;;14.90;11.30;;;2.90;99.40;;;;;;5115457;28;20884;-73
2021/01/16 10:08:46;;;;;;;17.70;11.40;;;2.90;99.20;;;;;;5114540;28;20402;-72
2021/01/16 10:11:14;;;;;;;19.70;12.40;;;2.80;98.90;;;;;;5113064;27;20815;-73
2021/01/16 10:13:41;;;;;;;21.80;13.10;;;2.80;99.00;;;;;;5114484;27;20429;-73
2021/01/16 10:16:11;;;;;;;16.63;11.47;;;2.80;99.00;;;;;;5115651;27;20476;-73
2021/01/16 10:18:39;;;;;;;13.90;10.97;;;2.90;98.90;;;;;;5135482;27;20805;-73
2021/01/16 10:21:05;;;;;;;14.63;11.47;;;2.90;98.70;;;;;;5113385;27;20433;-74
2021/01/16 10:23:33;;;;;;;15.83;11.20;;;2.90;98.60;;;;;;5095388;28;20407;-73
2021/01/16 10:26:08;;;;;;;15.07;10.00;;;2.90;98.60;;;;;;5096162;28;20738;-73
2021/01/16 10:28:36;;;;;;;14.70;10.83;;;2.90;98.40;;;;;;5095510;28;20423;-75
2021/01/16 10:31:07;;;;;;;17.60;10.93;;;2.80;98.10;;;;;;5095424;28;20944;-73
2021/01/16 10:33:42;;;;;;;15.37;11.93;;;2.80;98.20;;;;;;5097031;28;20468;-74
2021/01/16 10:36:16;;;;;;;15.47;11.30;;;2.70;98.30;;;;;;5100162;27;20477;-73
2021/01/16 10:38:51;;;;;;;18.17;11.53;;;2.80;98.30;;;;;;5097074;28;20442;-73
2021/01/16 10:41:18;;;;;;;16.93;10.37;;;2.70;98.20;;;;;;5098473;28;20426;-74
2021/01/16 10:43:44;;;;;;;15.33;10.60;;;2.70;98.30;;;;;;5096068;28;20407;-74
2021/01/16 10:46:31;;;;;;;15.90;11.53;;;2.80;98.30;;;;;;5096306;27;20430;-72
2021/01/16 10:49:16;;;;;;;19.60;11.10;;;2.90;98.20;;;;;;5095402;28;20403;-73
2021/01/16 10:51:52;;;;;;;16.33;11.00;;;3.00;98.10;;;;;;5094342;28;20775;-72
2021/01/16 10:54:19;;;;;;;16.63;10.57;;;3.10;97.80;;;;;;5094326;28;20775;-73
2021/01/16 10:57:04;;;;;;;16.03;11.20;;;3.00;97.70;;;;;;5094246;28;20463;-73
2021/01/16 10:59:32;;;;;;;16.47;11.20;;;3.00;97.70;;;;;;5100110;28;20403;-73
2021/01/16 11:01:58;;;;;;;16.97;10.50;;;3.00;97.70;;;;;;5096138;27;20426;-73
2021/01/16 11:04:31;;;;;;;17.13;11.43;;;3.10;97.40;;;;;;5114893;28;20742;-72
2021/01/16 11:07:02;;;;;;;16.53;10.83;;;3.10;97.30;;;;;;5103716;27;20435;-73
2021/01/16 11:09:46;;;;;;;14.70;10.27;;;3.10;97.30;;;;;;5095275;28;20953;-73
2021/01/16 11:12:12;;;;;;;14.50;9.87;;;3.20;97.30;;;;;;5096229;28;20752;-72
2021/01/16 11:14:40;;;;;;;16.43;10.90;;;3.20;97.20;;;;;;5094384;28;20409;-72
2021/01/16 11:17:08;;;;;;;15.03;11.30;;;3.20;97.10;;;;;;5093929;28;20192;-73
2021/01/16 11:19:39;;;;;;;15.23;11.23;;;3.20;97.10;;;;;;5092894;28;20803;-73
2021/01/16 11:22:13;;;;;;;15.07;10.10;;;3.10;97.00;;;;;;5095398;28;20435;-72
2021/01/16 11:24:53;;;;;;;16.07;11.30;;;3.20;97.00;;;;;;5093999;28;20418;-72
2021/01/16 11:27:30;;;;;;;16.03;11.30;;;3.30;96.80;;;;;;5094248;27;20503;-72
2021/01/16 11:30:13;;;;;;;14.40;10.63;;;3.30;96.80;;;;;;5092523;28;20935;-73
2021/01/16 11:32:39;;;;;;;14.40;10.60;;;3.30;96.60;;;;;;5097678;28;20422;-73
2021/01/16 11:35:12;;;;;;;17.20;10.70;;;3.30;96.70;;;;;;5101354;28;20438;-74
2021/01/16 11:37:49;;;;;;;13.20;10.07;;;3.30;96.80;;;;;;5118393;28;20503;-73
2021/01/16 11:40:20;;;;;;;15.73;11.03;;;3.30;96.80;;;;;;5116983;27;20439;-74
2021/01/16 11:42:57;;;;;;;19.37;11.97;;;3.30;96.70;;;;;;5105717;28;20510;-75
2021/01/16 11:45:26;;;;;;;15.83;11.40;;;3.40;96.50;;;;;;5116691;28;20490;-74
2021/01/16 11:47:57;;;;;;;14.63;10.87;;;3.40;96.60;;;;;;5115838;28;20790;-76
2021/01/16 11:50:25;;;;;;;16.53;11.07;;;3.30;96.60;;;;;;5115113;28;20456;-73
2021/01/16 11:52:51;;;;;;;14.80;11.67;;;3.40;96.70;;;;;;5112818;27;20848;-73
2021/01/16 11:55:17;;;;;;;15.97;11.37;;;3.40;96.60;;;;;;5114088;28;20454;-73
2021/01/16 11:57:44;;;;;;;14.67;10.70;;;3.40;96.60;;;;;;5114470;28;20196;-75
2021/01/16 12:00:15;;;;;;;14.20;10.50;;;3.40;96.60;;;;;;5114435;28;20815;-74
2021/01/16 12:02:51;;;;;;;15.60;10.70;;;3.50;96.60;;;;;;5114483;28;20758;-74
2021/01/16 12:05:18;;;;;;;14.13;11.07;;;3.50;96.50;;;;;;5101906;28;20824;-73
2021/01/16 12:07:52;;;;;;;15.83;11.83;;;3.50;96.30;;;;;;5096820;28;20406;-72
2021/01/16 12:10:30;;;;;;;16.00;11.37;;;3.50;96.20;;;;;;5098397;28;20391;-74
2021/01/16 12:12:57;;;;;;;16.20;10.20;;;3.50;96.20;;;;;;5107224;28;20545;-74
2021/01/16 12:15:27;;;;;;;15.27;10.60;;;3.50;96.20;;;;;;5117627;28;20450;-74
2021/01/16 12:17:54;;;;;;;17.87;11.17;;;3.50;96.20;;;;;;5118374;28;20406;-74
2021/01/16 12:20:25;;;;;;;16.33;10.37;;;3.50;96.20;;;;;;5118304;27;20988;-73
2021/01/16 12:22:56;;;;;;;15.30;10.37;;;3.50;96.30;;;;;;5116259;28;20430;-74
2021/01/16 12:25:34;;;;;;;15.47;10.50;;;3.50;96.30;;;;;;5116816;28;20410;-74
2021/01/16 12:28:01;;;;;;;15.87;10.60;;;3.50;96.30;;;;;;5118570;28;20394;-73
2021/01/16 12:30:36;;;;;;;14.70;10.67;;;3.50;96.20;;;;;;5118426;27;20423;-74
2021/01/16 12:33:02;;;;;;;15.40;10.70;;;3.50;96.20;;;;;;5119951;28;20719;-73
2021/01/16 12:35:28;;;;;;;14.93;9.93;;;3.50;96.20;;;;;;5101256;28;20502;-72
2021/01/16 12:37:54;;;;;;;17.50;11.30;;;3.50;96.20;;;;;;5104863;28;20405;-74
2021/01/16 12:40:22;;;;;;;14.70;10.43;;;3.50;96.20;;;;;;5098003;28;20885;-74
2021/01/16 12:42:48;;;;;;;11.63;9.57;;;3.50;96.20;;;;;;5097365;27;20767;-74
2021/01/16 12:45:22;;;;;;;13.37;9.80;;;3.50;96.20;;;;;;5109130;28;20450;-73
2021/01/16 12:47:52;;;;;;;14.27;10.83;;;3.50;96.30;;;;;;5117567;28;20402;-74
2021/01/16 12:50:21;;;;;;;17.00;11.73;;;3.50;96.40;;;;;;5118308;28;20417;-73
2021/01/16 12:52:48;;;;;;;17.37;11.83;;;3.50;96.50;;;;;;5117809;27;20417;-74
2021/01/16 12:55:16;;;;;;;17.80;11.27;;;3.50;96.50;;;;;;5115868;28;20413;-72
2021/01/16 12:57:47;;;;;;;17.23;11.90;;;3.50;96.60;;;;;;5118389;28;20409;-74